Terminal Aerodrome Forecast
Issued by NWS Chicago, IL

Home | Current Version | Previous Version | Text Only | Print | Product List | Glossary On
Versions: 1 2 3 4 5 6 7 8 9 10 11 12 13 14 15 16 17 18 19 20 21 22 23 24 25 26 27 28 29
000
FTUS43 KLOT 242330
TAFRFD
TAF
KRFD 242330Z 2500/2524 11008KT 6SM -RASN BR OVC008
      TEMPO 2501/2503 2SM -SNPL BR SCT008 OVC012
     FM250300 11010KT P6SM VCSH OVC015
     FM250600 11012KT 3SM -RASN BR VCTS OVC007CB
      TEMPO 2507/2510 1SM -SN BR OVC005
     FM251000 14012G18KT 2SM -SHRA BR OVC004
     FM251500 VRB06KT 1SM -DZ BR OVC003
     FM251900 24012KT 3SM -SHRA BR OVC007=

USA.gov is the U.S. government's official web portal to all federal, state and local government web resources and services.